Time;durP1;ratioP1;P1;durP2;ratioP2;P2;SDS_P1;SDS_P2;PMS_P1;PMS_P2;Temp;Humidity;BMP_temperature;BMP_pressure;BME280_temperature;BME280_humidity;BME280_pressure;Samples;Min_cycle;Max_cycle;Signal;HPM_P1;HPM_P2
2022/03/23 00:01:06;;;;;;;41.13;27.65;;;;;;;6.89;64.66;102832.84;5047050;28;20497;-69
2022/03/23 00:03:35;;;;;;;43.47;28.95;;;;;;;6.77;65.09;102824.31;5061997;28;20036;-67
2022/03/23 00:06:01;;;;;;;43.15;30.30;;;;;;;6.75;65.12;102823.34;5064455;28;20100;-67
2022/03/23 00:08:27;;;;;;;43.10;30.40;;;;;;;6.52;65.98;102827.41;5062827;28;20082;-69
2022/03/23 00:10:52;;;;;;;43.83;30.63;;;;;;;6.58;66.81;102822.44;5062995;28;20017;-69
2022/03/23 00:13:17;;;;;;;44.00;30.38;;;;;;;6.42;67.52;102820.75;5063862;28;20044;-69
2022/03/23 00:15:43;;;;;;;48.50;31.58;;;;;;;6.36;67.87;102823.06;5061746;28;20025;-64
2022/03/23 00:18:09;;;;;;;45.10;29.52;;;;;;;6.03;69.04;102833.53;5064760;28;20031;-64
2022/03/23 00:20:34;;;;;;;42.92;29.23;;;;;;;6.02;70.12;102824.78;5061792;28;20028;-68
2022/03/23 00:23:00;;;;;;;44.47;28.60;;;;;;;5.95;69.74;102822.59;5064075;28;20024;-68
2022/03/23 00:25:26;;;;;;;41.50;29.38;;;;;;;5.95;70.38;102825.22;5062684;28;20103;-69
2022/03/23 00:27:51;;;;;;;48.15;32.13;;;;;;;5.83;72.03;102824.56;5062429;28;20095;-64
2022/03/23 00:30:17;;;;;;;42.72;29.38;;;;;;;5.89;71.73;102823.16;5063998;28;20036;-64
2022/03/23 00:32:42;;;;;;;41.72;28.77;;;;;;;5.94;71.03;102832.19;5061240;28;20456;-64
2022/03/23 00:35:08;;;;;;;46.28;29.85;;;;;;;5.86;71.36;102833.50;5064954;28;20117;-68
2022/03/23 00:37:33;;;;;;;42.22;29.88;;;;;;;5.91;70.93;102834.66;5061286;28;20426;-69
2022/03/23 00:39:59;;;;;;;43.15;29.73;;;;;;;5.90;71.62;102826.69;5063451;28;20057;-69
2022/03/23 00:42:24;;;;;;;43.53;29.15;;;;;;;5.72;71.55;102827.50;5062730;28;20071;-63
2022/03/23 00:44:51;;;;;;;43.10;29.42;;;;;;;5.69;72.65;102834.28;5062383;28;20482;-64
2022/03/23 00:47:17;;;;;;;44.00;28.27;;;;;;;5.71;72.77;102830.03;5062783;28;20092;-65
2022/03/23 00:49:43;;;;;;;42.33;28.38;;;;;;;5.64;72.49;102827.88;5061445;28;20426;-68
2022/03/23 00:52:08;;;;;;;42.83;28.20;;;;;;;5.40;73.95;102828.28;5064567;28;20116;-69
2022/03/23 00:54:35;;;;;;;45.05;29.17;;;;;;;5.51;75.55;102835.03;5042811;28;20464;-68
2022/03/23 00:57:07;;;;;;;42.28;28.48;;;;;;;5.67;74.75;102828.94;5063548;28;20021;-64
2022/03/23 00:59:34;;;;;;;42.85;29.35;;;;;;;5.58;73.68;102829.31;5061455;28;20025;-64
2022/03/23 01:01:59;;;;;;;42.33;29.58;;;;;;;5.44;74.81;102830.25;5063101;28;20033;-68
2022/03/23 01:04:25;;;;;;;42.90;29.17;;;;;;;5.28;75.15;102832.81;5062440;28;20103;-69
2022/03/23 01:06:54;;;;;;;42.65;30.33;;;;;;;5.26;75.61;102830.13;5062246;28;20025;-68
2022/03/23 01:09:22;;;;;;;43.22;29.88;;;;;;;5.17;76.20;102830.50;5063252;28;20035;-64
2022/03/23 01:11:52;;;;;;;50.38;32.97;;;;;;;5.29;76.50;102830.28;5061491;28;20021;-64
2022/03/23 01:14:19;;;;;;;47.45;32.47;;;;;;;5.12;77.03;102826.69;5063542;28;20052;-64
2022/03/23 01:16:45;;;;;;;48.10;32.00;;;;;;;4.98;77.14;102827.59;5061146;28;20479;-68
2022/03/23 01:19:11;;;;;;;44.65;30.27;;;;;;;4.95;78.02;102828.34;5064207;28;20040;-69
2022/03/23 01:21:36;;;;;;;48.08;32.70;;;;;;;4.80;78.86;102827.41;5056299;28;20471;-68
2022/03/23 01:24:02;;;;;;;45.95;31.17;;;;;;;4.74;79.62;102819.19;5063297;28;20082;-68
2022/03/23 01:26:28;;;;;;;46.60;31.60;;;;;;;4.70;79.76;102826.88;5039967;28;20396;-64
2022/03/23 01:28:54;;;;;;;46.67;32.08;;;;;;;4.63;80.05;102819.47;5042381;28;20029;-64
2022/03/23 01:31:19;;;;;;;43.42;30.20;;;;;;;4.52;80.10;102813.56;5043223;28;20086;-69
2022/03/23 01:33:44;;;;;;;47.35;33.22;;;;;;;4.54;80.81;102811.94;5041032;28;20018;-69
2022/03/23 01:36:10;;;;;;;44.70;30.83;;;;;;;4.53;80.03;102818.00;5043911;28;20029;-69
2022/03/23 01:38:36;;;;;;;44.65;30.73;;;;;;;4.55;80.50;102815.47;5040801;28;20420;-67
2022/03/23 01:41:02;;;;;;;45.92;31.17;;;;;;;4.56;80.48;102816.34;5043345;28;20029;-67
2022/03/23 01:43:28;;;;;;;46.97;31.90;;;;;;;4.53;80.22;102812.75;5041748;28;20118;-67
2022/03/23 01:45:53;;;;;;;46.13;31.58;;;;;;;4.52;80.76;102810.03;5042121;28;20022;-67
2022/03/23 01:48:19;;;;;;;47.28;31.60;;;;;;;4.39;81.63;102808.38;5041331;28;20075;-68
2022/03/23 01:50:44;;;;;;;44.65;31.92;;;;;;;4.40;81.68;102807.59;5040876;28;20033;-68
2022/03/23 01:53:09;;;;;;;45.97;31.33;;;;;;;4.35;81.88;102801.16;5043694;28;20430;-68
2022/03/23 01:55:35;;;;;;;46.10;31.02;;;;;;;4.38;82.02;102805.69;5040749;28;20112;-68
2022/03/23 01:58:00;;;;;;;45.63;31.40;;;;;;;4.30;82.22;102802.59;5044277;28;20049;-68
2022/03/23 02:00:28;;;;;;;43.58;30.92;;;;;;;4.23;83.12;102805.66;5045794;28;20075;-68
2022/03/23 02:02:53;;;;;;;44.78;31.65;;;;;;;4.20;83.23;102795.88;5045621;28;20034;-68
2022/03/23 02:05:19;;;;;;;46.90;31.70;;;;;;;4.11;85.07;102793.59;5046485;28;20031;-68
2022/03/23 02:07:45;;;;;;;43.90;29.73;;;;;;;4.18;84.63;102801.03;5044415;28;20380;-68
2022/03/23 02:10:10;;;;;;;42.17;28.63;;;;;;;4.14;84.34;102796.41;5047328;28;20021;-66
2022/03/23 02:12:37;;;;;;;47.42;30.67;;;;;;;4.08;84.61;102800.34;5043757;28;20056;-68
2022/03/23 02:15:11;;;;;;;44.80;31.35;;;;;;;3.95;85.11;102799.59;5045565;28;20028;-69
2022/03/23 02:17:36;;;;;;;47.38;30.63;;;;;;;3.91;85.25;102796.69;5042270;28;20042;-68
2022/03/23 02:20:03;;;;;;;44.92;29.55;;;;;;;3.79;86.51;102791.59;5046661;28;20029;-68
2022/03/23 02:22:29;;;;;;;46.30;30.35;;;;;;;3.87;87.26;102805.16;5044911;28;20036;-65
2022/03/23 02:24:56;;;;;;;44.00;29.60;;;;;;;3.86;87.13;102803.34;5045560;28;20030;-67
2022/03/23 02:27:22;;;;;;;46.58;30.10;;;;;;;3.77;86.95;102798.44;5057602;28;20089;-68
2022/03/23 02:29:48;;;;;;;45.30;31.48;;;;;;;3.76;87.59;102797.53;5064198;28;20115;-68
2022/03/23 02:32:13;;;;;;;45.72;31.58;;;;;;;3.79;87.99;102795.13;5067055;28;20037;-68
2022/03/23 02:34:39;;;;;;;48.13;31.55;;;;;;;3.76;88.40;102804.50;5063499;28;20080;-64
2022/03/23 02:37:05;;;;;;;44.90;29.98;;;;;;;3.75;88.73;102800.06;5066856;28;20036;-64
2022/03/23 02:39:30;;;;;;;44.92;31.58;;;;;;;3.74;88.14;102798.25;5064386;28;20059;-65
2022/03/23 02:41:56;;;;;;;46.15;30.35;;;;;;;3.71;87.99;102798.94;5064849;28;20112;-65
2022/03/23 02:44:23;;;;;;;47.55;31.05;;;;;;;3.63;88.87;102805.41;5065688;28;20032;-66
2022/03/23 02:46:48;;;;;;;46.10;30.90;;;;;;;3.62;90.33;102801.00;5063865;28;20036;-65
2022/03/23 02:49:19;;;;;;;48.72;31.88;;;;;;;3.64;89.88;102788.91;5066187;28;20024;-64
2022/03/23 02:51:44;;;;;;;49.22;31.85;;;;;;;3.60;90.32;102803.50;5063294;28;20086;-64
2022/03/23 03:02:41;;;;;;;46.72;33.05;;;;;;;3.35;90.79;102798.41;5059374;28;20039;-66
2022/03/23 03:05:09;;;;;;;48.70;33.45;;;;;;;3.16;92.73;102806.75;5066544;28;20021;-65
2022/03/23 03:10:21;;;;;;;48.92;33.65;;;;;;;3.13;95.45;102801.31;5060577;28;20538;-66
2022/03/23 03:12:47;;;;;;;47.90;32.00;;;;;;;3.00;94.89;102804.84;5065596;28;20047;-64
2022/03/23 03:15:14;;;;;;;48.00;33.17;;;;;;;2.98;96.25;102806.44;5062550;28;20025;-64
2022/03/23 03:17:40;;;;;;;49.15;31.65;;;;;;;3.00;96.38;102804.84;5058551;28;20017;-66
2022/03/23 03:20:06;;;;;;;46.83;32.13;;;;;;;2.88;96.69;102810.13;5065855;28;20054;-66
2022/03/23 03:22:38;;;;;;;46.65;32.13;;;;;;;2.81;98.65;102804.41;5063063;28;20028;-65
2022/03/23 03:25:05;;;;;;;51.15;31.75;;;;;;;2.97;98.54;102815.06;5065302;28;20352;-65
2022/03/23 03:27:35;;;;;;;51.65;34.10;;;;;;;3.00;98.36;102810.06;5063083;28;20055;-65
2022/03/23 03:30:04;;;;;;;55.40;33.83;;;;;;;2.86;98.78;102809.13;5064685;28;20040;-64
2022/03/23 03:32:29;;;;;;;48.65;33.05;;;;;;;2.82;98.66;102814.94;5063196;28;20029;-66
2022/03/23 03:34:55;;;;;;;51.08;35.33;;;;;;;2.85;98.63;102811.63;5064013;28;20027;-65
2022/03/23 03:37:20;;;;;;;50.33;35.55;;;;;;;2.85;99.33;102806.41;5064944;28;20020;-66
2022/03/23 03:39:45;;;;;;;52.40;36.15;;;;;;;2.82;100.00;102811.44;5062382;28;20043;-66
2022/03/23 03:42:13;;;;;;;55.22;38.38;;;;;;;2.74;100.00;102814.44;5065827;28;20383;-65
2022/03/23 03:44:38;;;;;;;53.53;36.83;;;;;;;2.75;100.00;102813.66;5058350;28;20346;-65
2022/03/23 03:47:04;;;;;;;53.70;37.25;;;;;;;2.66;100.00;102810.38;5064691;28;20070;-66
2022/03/23 03:49:30;;;;;;;53.70;38.00;;;;;;;2.54;100.00;102813.06;5063043;28;20054;-66
2022/03/23 03:51:55;;;;;;;54.78;39.42;;;;;;;2.56;100.00;102816.72;5063785;28;20033;-65
2022/03/23 03:54:20;;;;;;;57.72;38.90;;;;;;;2.50;100.00;102812.75;5064228;28;20095;-65
2022/03/23 03:56:46;;;;;;;55.10;39.13;;;;;;;2.43;100.00;102814.03;5062228;28;20052;-65
2022/03/23 03:59:11;;;;;;;58.30;40.25;;;;;;;2.53;100.00;102818.19;5065396;28;20071;-66
2022/03/23 04:01:37;;;;;;;56.08;39.10;;;;;;;2.55;100.00;102819.19;5061882;28;20062;-66
2022/03/23 04:04:02;;;;;;;59.75;39.83;;;;;;;2.47;100.00;102817.78;5046443;28;20037;-66
2022/03/23 04:06:28;;;;;;;55.40;39.92;;;;;;;2.44;100.00;102818.47;5063172;28;20024;-66
2022/03/23 04:08:53;;;;;;;55.88;40.75;;;;;;;2.41;100.00;102808.72;5062784;28;20521;-65
2022/03/23 04:11:18;;;;;;;56.38;39.90;;;;;;;2.35;100.00;102816.13;5064424;28;20107;-68
2022/03/23 04:13:44;;;;;;;58.25;40.08;;;;;;;2.25;100.00;102813.69;5061474;28;20021;-66
2022/03/23 04:16:09;;;;;;;56.75;40.13;;;;;;;2.17;100.00;102817.44;5064947;28;20025;-67
2022/03/23 04:18:34;;;;;;;54.00;37.33;;;;;;;2.09;100.00;102815.19;5061967;28;20021;-68
2022/03/23 04:20:59;;;;;;;54.20;39.05;;;;;;;2.08;100.00;102816.03;5063450;28;20036;-68
2022/03/23 04:23:25;;;;;;;54.80;38.92;;;;;;;2.09;100.00;102812.59;5063403;28;20025;-69
2022/03/23 04:25:50;;;;;;;53.65;38.22;;;;;;;2.13;100.00;102813.72;5062265;28;20031;-67
2022/03/23 04:28:16;;;;;;;56.22;39.53;;;;;;;2.09;100.00;102812.59;5064198;28;20110;-67
2022/03/23 04:30:41;;;;;;;54.17;40.00;;;;;;;2.16;100.00;102813.03;5061285;28;20414;-66
2022/03/23 04:33:07;;;;;;;58.60;41.22;;;;;;;2.13;100.00;102818.06;5064534;28;20124;-66
2022/03/23 04:35:32;;;;;;;57.67;40.65;;;;;;;2.08;100.00;102816.03;5062099;28;20475;-68
2022/03/23 04:37:57;;;;;;;56.53;40.05;;;;;;;2.00;100.00;102826.72;5063319;28;20452;-64
2022/03/23 04:40:23;;;;;;;53.10;38.10;;;;;;;1.99;100.00;102820.56;5063354;28;20044;-66
2022/03/23 04:42:49;;;;;;;53.67;38.55;;;;;;;1.95;100.00;102818.53;5061552;28;20033;-67
2022/03/23 04:45:15;;;;;;;56.75;38.92;;;;;;;1.90;100.00;102828.66;5064445;28;20024;-67
2022/03/23 04:47:41;;;;;;;55.03;39.30;;;;;;;1.88;100.00;102826.75;5061182;28;20100;-68
2022/03/23 04:50:09;;;;;;;55.25;38.58;;;;;;;1.88;100.00;102838.09;5063965;28;20142;-67
2022/03/23 04:52:35;;;;;;;55.63;38.47;;;;;;;1.87;100.00;102824.94;5061490;28;20476;-69
2022/03/23 04:55:01;;;;;;;52.60;37.65;;;;;;;1.82;100.00;102832.44;5063148;28;20070;-68
2022/03/23 04:57:27;;;;;;;55.47;38.22;;;;;;;1.85;100.00;102829.13;5062410;28;20027;-68
2022/03/23 04:59:54;;;;;;;53.65;38.33;;;;;;;1.85;100.00;102834.31;5061985;28;20025;-69
2022/03/23 05:02:19;;;;;;;53.13;37.20;;;;;;;1.82;100.00;102834.13;5063677;28;20437;-69
2022/03/23 05:04:45;;;;;;;50.95;36.95;;;;;;;1.87;100.00;102845.78;5061004;28;20032;-68
2022/03/23 05:07:11;;;;;;;56.20;38.72;;;;;;;2.01;100.00;102836.34;5064323;28;20043;-68
2022/03/23 05:09:36;;;;;;;55.67;39.92;;;;;;;1.94;100.00;102847.13;5060880;28;20379;-69
2022/03/23 05:12:02;;;;;;;58.70;39.65;;;;;;;1.96;100.00;102851.66;5063435;28;20021;-69
2022/03/23 05:14:27;;;;;;;54.50;38.22;;;;;;;1.97;100.00;102848.28;5062266;28;20029;-69
2022/03/23 05:16:53;;;;;;;58.53;40.75;;;;;;;2.06;100.00;102853.22;5061787;28;20486;-66
2022/03/23 05:19:18;;;;;;;55.47;39.08;;;;;;;1.90;100.00;102861.66;5063687;28;20357;-63
2022/03/23 05:21:43;;;;;;;53.90;37.70;;;;;;;1.94;100.00;102861.09;5060304;28;20391;-65
2022/03/23 05:24:09;;;;;;;56.83;39.17;;;;;;;1.98;100.00;102860.53;5064118;28;20028;-66
2022/03/23 05:26:34;;;;;;;54.40;37.70;;;;;;;1.90;100.00;102854.72;5061333;28;20029;-66
2022/03/23 05:28:59;;;;;;;55.58;38.78;;;;;;;1.97;100.00;102853.47;5062353;28;20069;-65
2022/03/23 05:31:25;;;;;;;52.95;37.95;;;;;;;1.95;100.00;102849.84;5062245;28;20111;-64
2022/03/23 05:33:50;;;;;;;58.05;38.55;;;;;;;1.99;100.00;102857.09;5064849;28;20127;-65
2022/03/23 05:36:16;;;;;;;57.58;40.17;;;;;;;1.89;100.00;102852.00;5067548;28;20040;-65
2022/03/23 05:38:42;;;;;;;59.05;38.88;;;;;;;1.88;100.00;102853.72;5064609;28;20108;-65
2022/03/23 05:41:07;;;;;;;56.70;38.83;;;;;;;1.80;100.00;102859.19;5067768;28;20024;-66
2022/03/23 05:43:32;;;;;;;58.83;38.70;;;;;;;1.70;100.00;102863.75;5065435;28;20386;-65
2022/03/23 05:45:58;;;;;;;50.40;37.08;;;;;;;1.63;100.00;102869.31;5065961;28;20039;-65
2022/03/23 05:48:23;;;;;;;54.67;37.72;;;;;;;1.68;100.00;102870.53;5066794;28;20028;-65
2022/03/23 05:50:48;;;;;;;52.58;37.65;;;;;;;1.65;100.00;102869.44;5064632;28;20074;-66
2022/03/23 05:53:13;;;;;;;58.13;39.20;;;;;;;1.67;100.00;102868.72;5067544;28;20455;-67
2022/03/23 05:55:39;;;;;;;62.45;40.30;;;;;;;1.70;100.00;102871.56;5064110;28;20029;-67
2022/03/23 05:58:04;;;;;;;57.72;39.22;;;;;;;1.76;100.00;102872.81;5066824;28;20036;-65
2022/03/23 06:00:30;;;;;;;54.63;39.03;;;;;;;1.60;100.00;102871.66;5046974;28;20464;-68
2022/03/23 06:02:56;;;;;;;56.40;38.15;;;;;;;1.56;100.00;102877.47;5047292;28;20025;-69
2022/03/23 06:05:21;;;;;;;56.60;39.53;;;;;;;1.67;100.00;102878.25;5066306;28;20088;-69
2022/03/23 06:07:47;;;;;;;55.97;39.70;;;;;;;1.70;100.00;102879.41;5064126;28;20039;-69
2022/03/23 06:10:12;;;;;;;61.45;40.75;;;;;;;1.67;100.00;102878.25;5067442;28;20379;-69
2022/03/23 06:12:38;;;;;;;59.97;40.17;;;;;;;1.81;100.00;102872.34;5064047;28;20464;-64
2022/03/23 06:15:05;;;;;;;57.38;40.00;;;;;;;1.74;100.00;102888.34;5066336;28;20032;-69
2022/03/23 06:17:31;;;;;;;55.95;40.53;;;;;;;1.76;100.00;102885.84;5065083;28;20087;-68
2022/03/23 06:19:56;;;;;;;59.92;40.22;;;;;;;1.78;100.00;102881.63;5059571;28;20029;-68
2022/03/23 06:22:22;;;;;;;56.03;38.67;;;;;;;1.82;100.00;102879.38;5052730;28;20104;-68
2022/03/23 06:24:47;;;;;;;61.22;40.92;;;;;;;1.86;100.00;102885.72;5055022;28;20108;-67
2022/03/23 06:27:13;;;;;;;59.70;41.33;;;;;;;1.94;100.00;102879.34;5058470;28;20111;-65
2022/03/23 06:29:38;;;;;;;57.90;41.92;;;;;;;1.94;100.00;102881.97;5056611;28;20029;-67
2022/03/23 06:32:04;;;;;;;61.20;41.63;;;;;;;2.09;100.00;102885.66;5052814;28;20383;-66
2022/03/23 06:34:29;;;;;;;58.53;41.30;;;;;;;2.09;100.00;102890.88;5056811;28;20463;-68
2022/03/23 06:36:55;;;;;;;60.30;41.10;;;;;;;2.12;100.00;102887.59;5056626;28;20025;-66
2022/03/23 06:39:20;;;;;;;63.85;42.58;;;;;;;2.12;100.00;102886.69;5054310;28;20495;-70
2022/03/23 06:41:46;;;;;;;56.45;41.65;;;;;;;2.21;100.00;102888.25;5046688;28;20120;-68
2022/03/23 06:44:11;;;;;;;59.05;41.08;;;;;;;2.38;100.00;102897.25;5055204;28;20108;-68
2022/03/23 06:46:37;;;;;;;56.35;40.53;;;;;;;2.40;100.00;102895.69;5054284;28;20117;-66
2022/03/23 06:49:02;;;;;;;55.65;40.83;;;;;;;2.46;100.00;102895.19;5051441;28;20018;-67
2022/03/23 06:51:28;;;;;;;59.65;41.40;;;;;;;2.55;100.00;102897.53;5055185;28;20024;-68
2022/03/23 06:53:53;;;;;;;58.97;42.42;;;;;;;2.61;100.00;102908.44;5053698;28;20052;-68
2022/03/23 06:56:19;;;;;;;61.58;42.55;;;;;;;2.75;100.00;102905.06;5056941;28;20075;-70
2022/03/23 06:58:44;;;;;;;57.65;42.10;;;;;;;2.96;100.00;102907.34;5053577;28;20455;-66
2022/03/23 07:01:09;;;;;;;61.42;42.90;;;;;;;3.11;100.00;102908.38;5048215;28;20029;-66
2022/03/23 07:03:35;;;;;;;58.83;43.08;;;;;;;3.29;100.00;102905.19;5057876;28;20032;-67
2022/03/23 07:06:01;;;;;;;57.42;41.50;;;;;;;3.46;100.00;102912.44;5055956;28;20036;-68
2022/03/23 07:11:10;;;;;;;61.38;44.10;;;;;;;3.74;100.00;102906.44;5054142;28;20387;-68
2022/03/23 07:13:35;;;;;;;60.30;44.42;;;;;;;3.93;100.00;102907.59;5053361;28;20096;-66
2022/03/23 07:16:01;;;;;;;59.22;45.33;;;;;;;4.08;100.00;102915.53;5053458;28;20041;-67
2022/03/23 07:18:27;;;;;;;60.83;46.38;;;;;;;4.25;100.00;102911.38;5055812;28;20056;-68
2022/03/23 07:20:52;;;;;;;60.95;45.50;;;;;;;4.40;100.00;102914.97;5050312;28;20391;-68
2022/03/23 07:23:18;;;;;;;58.08;44.50;;;;;;;4.52;100.00;102918.34;5058803;28;20112;-66
2022/03/23 07:25:43;;;;;;;58.05;44.75;;;;;;;4.65;100.00;102913.88;5058283;28;20435;-65
2022/03/23 07:28:09;;;;;;;58.55;44.95;;;;;;;4.75;100.00;102920.56;5055107;28;20087;-66
2022/03/23 07:30:35;;;;;;;60.35;43.20;;;;;;;4.88;100.00;102920.53;5055433;28;20061;-66
2022/03/23 07:33:04;;;;;;;58.15;42.60;;;;;;;5.00;100.00;102928.22;5055309;28;20060;-66
2022/03/23 07:35:29;;;;;;;57.60;42.95;;;;;;;5.16;100.00;102925.69;5053068;28;20095;-66
2022/03/23 07:37:55;;;;;;;59.10;42.90;;;;;;;5.38;100.00;102927.84;5049674;28;20468;-66
2022/03/23 07:40:20;;;;;;;64.28;43.35;;;;;;;5.59;100.00;102920.34;5065432;28;20036;-67
2022/03/23 07:42:45;;;;;;;55.70;41.95;;;;;;;5.89;100.00;102924.66;5062437;28;20033;-66
2022/03/23 07:45:11;;;;;;;55.33;42.42;;;;;;;6.12;100.00;102925.97;5064189;28;20032;-66
2022/03/23 07:47:38;;;;;;;54.72;40.25;;;;;;;6.37;98.67;102930.84;5064157;28;20063;-66
2022/03/23 07:50:03;;;;;;;54.00;41.35;;;;;;;6.69;96.23;102929.06;5060845;28;20064;-67
2022/03/23 07:52:29;;;;;;;53.22;39.80;;;;;;;6.89;91.91;102938.00;5056428;28;20063;-66
2022/03/23 07:54:54;;;;;;;54.63;40.88;;;;;;;7.05;92.04;102936.16;5052994;28;20028;-65
2022/03/23 07:57:19;;;;;;;55.92;39.53;;;;;;;7.31;92.92;102942.78;5056688;28;20033;-65
2022/03/23 07:59:46;;;;;;;55.28;41.30;;;;;;;7.54;90.09;102943.06;5058403;28;20459;-65
2022/03/23 08:02:12;;;;;;;52.05;39.90;;;;;;;7.68;86.37;102945.53;5053550;28;20076;-66
2022/03/23 08:04:37;;;;;;;55.03;40.15;;;;;;;7.70;84.88;102942.09;5054676;28;20076;-66
2022/03/23 08:07:03;;;;;;;52.70;40.35;;;;;;;7.79;84.13;102945.16;5050078;28;20533;-65
2022/03/23 08:09:29;;;;;;;51.22;38.55;;;;;;;8.01;83.15;102945.41;5056425;28;20025;-66
2022/03/23 08:11:56;;;;;;;52.55;38.85;;;;;;;8.27;81.13;102943.13;5053390;28;20368;-66
2022/03/23 08:14:22;;;;;;;50.75;37.40;;;;;;;8.44;78.97;102945.63;5049689;28;20025;-67
2022/03/23 08:16:47;;;;;;;55.67;38.92;;;;;;;8.63;80.04;102948.31;5054218;28;20040;-66
2022/03/23 08:19:13;;;;;;;50.63;39.22;;;;;;;8.76;77.42;102944.50;5055823;28;20031;-66
2022/03/23 08:21:38;;;;;;;50.22;37.90;;;;;;;8.97;74.74;102941.94;5053474;28;20468;-66
2022/03/23 08:24:04;;;;;;;51.95;38.53;;;;;;;9.22;75.40;102938.63;5054854;28;20036;-67
2022/03/23 08:26:29;;;;;;;49.50;37.45;;;;;;;9.45;70.33;102941.34;5052214;28;20056;-66
2022/03/23 08:28:55;;;;;;;51.08;37.60;;;;;;;9.88;70.60;102942.22;5055810;28;20045;-67
2022/03/23 08:31:20;;;;;;;48.08;37.55;;;;;;;10.28;70.36;102938.50;5055798;28;20456;-65
2022/03/23 08:33:46;;;;;;;50.40;37.33;;;;;;;10.52;67.00;102935.94;5054458;28;20032;-66
2022/03/23 08:36:11;;;;;;;48.35;36.25;;;;;;;10.73;64.26;102940.22;5052728;28;20024;-66
2022/03/23 08:38:38;;;;;;;47.33;35.60;;;;;;;11.08;62.80;102943.25;5061919;28;20028;-68
2022/03/23 08:41:04;;;;;;;51.63;35.45;;;;;;;11.43;62.52;102939.22;5062257;28;20050;-68
2022/03/23 08:43:30;;;;;;;48.53;35.55;;;;;;;11.66;60.33;102941.72;5062743;28;20033;-68
2022/03/23 08:45:55;;;;;;;48.00;36.25;;;;;;;11.84;61.72;102942.31;5063288;28;20043;-67
2022/03/23 08:48:20;;;;;;;48.40;36.25;;;;;;;11.96;60.15;102933.00;5061908;28;20029;-66
2022/03/23 08:50:50;;;;;;;46.55;35.55;;;;;;;11.99;59.17;102943.69;5064539;28;20451;-67
2022/03/23 08:53:16;;;;;;;49.03;35.75;;;;;;;12.34;58.18;102942.13;5057166;28;20025;-65
2022/03/23 08:55:42;;;;;;;51.20;36.75;;;;;;;12.69;58.81;102944.94;5064369;28;20086;-65
2022/03/23 08:58:08;;;;;;;48.50;35.38;;;;;;;13.36;56.98;102946.78;5061564;28;20376;-66
2022/03/23 09:00:34;;;;;;;52.67;35.15;;;;;;;13.78;54.31;102941.66;5055408;28;20029;-69
2022/03/23 09:03:00;;;;;;;45.40;33.92;;;;;;;13.99;51.26;102943.03;5052718;28;20040;-70
2022/03/23 09:05:25;;;;;;;44.88;33.08;;;;;;;14.12;49.66;102944.22;5053923;28;20032;-68
2022/03/23 09:07:51;;;;;;;45.28;35.15;;;;;;;14.32;50.86;102946.44;5052091;28;20078;-65
2022/03/23 09:10:18;;;;;;;45.13;33.67;;;;;;;14.59;48.19;102947.03;5055450;28;20407;-68
2022/03/23 09:12:44;;;;;;;46.03;34.72;;;;;;;15.22;47.45;102947.41;5030209;28;20037;-67
2022/03/23 09:15:12;;;;;;;44.25;33.90;;;;;;;15.97;45.77;102942.44;5033635;28;20512;-68
2022/03/23 09:17:39;;;;;;;43.72;32.95;;;;;;;16.69;43.67;102947.88;5055770;28;20112;-67
2022/03/23 09:20:05;;;;;;;43.65;34.00;;;;;;;17.07;42.08;102949.22;5054705;28;20029;-68
2022/03/23 09:22:37;;;;;;;43.90;33.15;;;;;;;17.16;40.01;102943.09;5035757;28;20025;-66
2022/03/23 09:25:08;;;;;;;45.60;33.58;;;;;;;17.50;39.31;102946.94;5052041;28;20021;-68
2022/03/23 09:27:36;;;;;;;43.75;33.03;;;;;;;18.18;38.33;102939.47;5053997;28;20480;-67
2022/03/23 09:30:03;;;;;;;42.15;32.00;;;;;;;18.56;36.78;102930.72;5049726;28;20551;-69
2022/03/23 09:32:28;;;;;;;42.00;31.65;;;;;;;19.13;36.03;102948.78;5052178;28;20111;-68
2022/03/23 09:34:53;;;;;;;41.70;32.08;;;;;;;19.45;35.80;102938.06;5055002;28;20095;-69
2022/03/23 09:40:03;;;;;;;43.15;34.47;;;;;;;19.93;34.87;102937.19;5048858;28;20047;-66
2022/03/23 09:42:31;;;;;;;41.70;32.22;;;;;;;20.18;34.79;102941.63;5051470;28;20383;-69
2022/03/23 09:44:57;;;;;;;42.95;32.45;;;;;;;20.81;33.69;102944.94;5054129;28;20032;-65
2022/03/23 09:47:22;;;;;;;43.33;32.13;;;;;;;21.35;33.54;102940.13;5053480;28;20037;-68
2022/03/23 09:49:48;;;;;;;40.50;31.58;;;;;;;21.67;31.69;102940.78;5054586;28;20025;-68
2022/03/23 09:52:14;;;;;;;41.80;32.03;;;;;;;21.85;30.54;102943.31;5051844;28;20040;-65
2022/03/23 09:54:41;;;;;;;39.55;30.15;;;;;;;21.99;29.59;102942.25;5047554;28;20048;-69
2022/03/23 09:57:07;;;;;;;39.28;29.35;;;;;;;22.59;29.70;102945.19;5053751;28;20025;-66
2022/03/23 09:59:34;;;;;;;38.53;28.95;;;;;;;22.89;27.77;102948.41;5054003;28;20024;-66
2022/03/23 10:02:02;;;;;;;38.72;29.63;;;;;;;23.15;27.15;102948.03;5051417;28;20091;-65
2022/03/23 10:04:57;;;;;;;38.50;28.65;;;;;;;23.45;26.88;102942.16;5048164;28;20028;-67
2022/03/23 10:07:42;;;;;;;38.20;28.52;;;;;;;23.56;27.35;102941.97;4952649;28;20049;-66
2022/03/23 10:11:01;;;;;;;40.05;29.38;;;;;;;24.28;27.10;102946.06;4959224;28;20031;-65
2022/03/23 10:14:04;;;;;;;37.60;27.00;;;;;;;24.61;24.71;102949.00;4962295;28;20035;-66
2022/03/23 10:16:48;;;;;;;36.22;26.92;;;;;;;24.65;23.43;102949.81;4962890;28;20085;-65
2022/03/23 10:19:13;;;;;;;35.72;26.17;;;;;;;24.77;22.47;102949.56;4960316;28;20471;-67
2022/03/23 10:21:39;;;;;;;35.70;25.70;;;;;;;25.68;21.38;102950.06;4966227;28;20034;-66
2022/03/23 10:24:04;;;;;;;36.03;25.40;;;;;;;26.23;20.78;102938.69;4962901;28;20122;-66
2022/03/23 10:26:31;;;;;;;37.17;25.52;;;;;;;25.37;20.60;102950.00;4963210;28;20507;-66
2022/03/23 10:28:59;;;;;;;36.13;24.23;;;;;;;24.65;21.25;102942.59;4965879;28;20093;-68
2022/03/23 10:31:26;;;;;;;34.97;24.75;;;;;;;25.10;20.78;102948.81;4963851;28;20038;-65
2022/03/23 10:33:59;;;;;;;36.22;24.83;;;;;;;25.76;20.22;102939.03;4965038;28;20554;-67
2022/03/23 10:36:27;;;;;;;35.10;24.77;;;;;;;26.23;19.48;102934.16;4963911;28;20031;-66
2022/03/23 10:38:59;;;;;;;34.53;23.52;;;;;;;27.16;19.03;102934.06;4964824;28;20031;-67
2022/03/23 10:41:25;;;;;;;33.88;24.10;;;;;;;27.17;18.82;102933.09;4963617;28;20027;-65
2022/03/23 10:43:51;;;;;;;34.28;24.05;;;;;;;27.31;17.75;102938.97;4989480;28;20445;-67
2022/03/23 10:46:17;;;;;;;33.15;23.15;;;;;;;28.02;17.71;102932.94;5065192;28;20064;-68
2022/03/23 10:48:58;;;;;;;35.50;24.42;;;;;;;28.40;17.82;102933.34;5063958;28;20021;-66
2022/03/23 10:51:30;;;;;;;33.27;23.37;;;;;;;29.01;16.41;102938.19;5063862;28;20467;-66
2022/03/23 10:53:56;;;;;;;33.03;23.30;;;;;;;29.37;15.45;102934.94;5065921;28;20419;-65
2022/03/23 10:56:32;;;;;;;33.83;23.60;;;;;;;29.47;16.31;102924.50;5064462;28;20032;-65
2022/03/23 10:59:22;;;;;;;31.38;21.95;;;;;;;29.88;15.92;102927.28;5066083;28;20425;-65
2022/03/23 11:02:03;;;;;;;34.33;24.08;;;;;;;28.95;16.30;102932.09;5062428;28;20100;-64
2022/03/23 11:04:31;;;;;;;34.33;23.75;;;;;;;28.57;15.74;102926.34;5045671;28;20061;-64
2022/03/23 11:06:58;;;;;;;34.33;23.65;;;;;;;28.91;17.26;102933.19;5065792;28;20025;-65
2022/03/23 11:18:13;;;;;;;32.75;21.98;;;;;;;30.40;14.58;102920.38;5063666;28;20102;-64
2022/03/23 11:20:48;;;;;;;32.47;20.65;;;;;;;30.97;14.29;102924.94;5059827;28;20112;-65
2022/03/23 11:23:24;;;;;;;31.10;21.27;;;;;;;31.82;12.91;102918.78;5065111;28;20029;-64
2022/03/23 11:25:59;;;;;;;31.65;21.10;;;;;;;31.72;12.70;102910.19;5064522;28;20029;-65
2022/03/23 11:28:26;;;;;;;31.40;20.70;;;;;;;31.44;12.73;102911.63;5063047;28;20467;-66
2022/03/23 11:30:52;;;;;;;30.63;20.02;;;;;;;31.05;12.94;102909.97;5064122;28;20383;-65
2022/03/23 11:33:21;;;;;;;28.40;19.10;;;;;;;31.07;12.18;102912.63;5064477;28;20016;-65
2022/03/23 11:35:49;;;;;;;29.13;19.75;;;;;;;31.27;13.07;102908.88;5063911;28;20025;-64